Time;durP1;ratioP1;P1;durP2;ratioP2;P2;SDS_P1;SDS_P2;PMS_P1;PMS_P2;Temp;Humidity;BMP_temperature;BMP_pressure;BME280_temperature;BME280_humidity;BME280_pressure;Samples;Min_cycle;Max_cycle;Signal;HPM_P1;HPM_P2
2022/04/03 00:00:54;;;;;;;5.85;2.50;;;;;;;3.00;62.28;102526.88;5082313;28;20328;-78
2022/04/03 00:03:19;;;;;;;4.32;2.28;;;;;;;2.99;62.78;102525.13;5062291;27;20032;-78
2022/04/03 00:05:45;;;;;;;2.08;1.88;;;;;;;3.00;63.16;102523.41;5091970;28;20056;-78
2022/04/03 00:08:12;;;;;;;3.33;2.40;;;;;;;3.01;63.17;102526.00;5086039;28;20517;-78
2022/04/03 00:10:39;;;;;;;4.50;2.05;;;;;;;3.01;63.27;102523.44;5120428;28;20117;-77
2022/04/03 00:13:05;;;;;;;2.50;2.30;;;;;;;3.01;62.98;102533.78;5102023;28;20022;-78
2022/04/03 00:15:31;;;;;;;3.50;2.38;;;;;;;3.01;63.20;102527.75;5132796;27;20039;-78
2022/04/03 00:17:57;;;;;;;2.72;2.05;;;;;;;3.01;63.01;102525.16;5111929;28;20297;-78
2022/04/03 00:20:22;;;;;;;3.40;2.20;;;;;;;3.01;62.86;102525.16;5121035;28;20039;-78
2022/04/03 00:22:48;;;;;;;2.28;2.05;;;;;;;2.99;62.83;102521.66;5121246;28;20411;-78
2022/04/03 00:25:20;;;;;;;2.30;1.98;;;;;;;2.98;62.84;102525.09;5132380;27;20039;-78
2022/04/03 00:27:46;;;;;;;3.75;2.10;;;;;;;2.97;63.26;102523.38;5104567;28;20089;-78
2022/04/03 00:30:12;;;;;;;2.72;1.98;;;;;;;2.95;63.41;102512.09;5121539;28;20028;-78
2022/04/03 00:32:38;;;;;;;3.75;2.20;;;;;;;2.93;63.33;102514.69;5101112;28;20032;-78
2022/04/03 00:35:04;;;;;;;2.53;2.20;;;;;;;2.91;63.46;102518.06;5114277;27;20327;-78
2022/04/03 00:37:30;;;;;;;2.58;2.28;;;;;;;2.88;63.47;102514.56;5067983;28;20047;-78
2022/04/03 00:39:56;;;;;;;3.75;2.45;;;;;;;2.86;63.55;102513.69;5115006;28;20144;-78
2022/04/03 00:42:22;;;;;;;2.38;2.17;;;;;;;2.84;63.56;102514.50;5103544;28;20108;-77
2022/04/03 00:44:47;;;;;;;2.17;1.98;;;;;;;2.81;63.78;102517.03;5102531;28;20066;-78
2022/04/03 00:47:16;;;;;;;2.50;2.03;;;;;;;2.79;63.79;102521.31;5114684;28;20063;-78
2022/04/03 00:49:41;;;;;;;2.97;2.30;;;;;;;2.77;63.97;102521.28;5108998;27;20051;-78
2022/04/03 00:52:07;;;;;;;2.35;2.08;;;;;;;2.76;64.10;102521.25;5120288;28;20048;-78
2022/04/03 00:54:32;;;;;;;5.28;2.42;;;;;;;2.73;64.08;102518.59;5099005;28;20212;-78
2022/04/03 00:56:58;;;;;;;3.63;2.15;;;;;;;2.73;64.04;102510.81;5138358;27;20054;-77
2022/04/03 00:59:23;;;;;;;2.53;2.13;;;;;;;2.71;64.13;102518.59;5108767;28;20113;-78
2022/04/03 01:05:06;;;;;;;2.58;2.38;;;;;;;2.69;64.36;102525.41;5089350;28;20052;-78
2022/04/03 01:07:32;;;;;;;2.65;2.45;;;;;;;2.67;64.21;102521.94;5136799;27;20043;-78
2022/04/03 01:09:58;;;;;;;2.70;2.42;;;;;;;2.64;64.52;102520.19;5122919;28;20039;-78
2022/04/03 01:12:24;;;;;;;2.58;2.38;;;;;;;2.62;64.45;102523.56;5116804;28;20091;-78
2022/04/03 01:14:49;;;;;;;2.72;2.45;;;;;;;2.61;64.54;102521.84;5103937;28;20050;-78
2022/04/03 01:17:15;;;;;;;3.35;2.30;;;;;;;2.60;64.68;102520.06;5088578;28;20107;-77
2022/04/03 01:19:41;;;;;;;2.10;1.98;;;;;;;2.57;64.68;102520.03;5097955;28;20420;-78
2022/04/03 01:22:07;;;;;;;2.08;1.90;;;;;;;2.54;64.70;102515.66;5124623;28;20034;-78
2022/04/03 01:24:33;;;;;;;3.58;2.50;;;;;;;2.50;64.83;102513.88;5101403;28;20031;-77
2022/04/03 01:26:58;;;;;;;4.35;2.20;;;;;;;2.47;65.04;102517.28;5091479;28;20031;-77
2022/04/03 01:29:24;;;;;;;3.10;2.20;;;;;;;2.46;65.18;102514.66;5125825;28;20113;-78
2022/04/03 01:31:50;;;;;;;3.72;2.35;;;;;;;2.43;64.92;102504.25;5094060;28;20043;-78
2022/04/03 01:34:17;;;;;;;3.38;2.20;;;;;;;2.41;65.20;102500.75;5115158;28;20046;-77
2022/04/03 01:36:43;;;;;;;2.55;2.35;;;;;;;2.40;65.37;102504.16;5100675;28;20028;-78
2022/04/03 01:39:14;;;;;;;6.03;2.60;;;;;;;2.38;65.44;102506.72;5125884;28;20039;-78
2022/04/03 01:41:41;;;;;;;3.35;2.60;;;;;;;2.36;65.21;102508.41;5106706;28;20023;-78
2022/04/03 01:44:08;;;;;;;3.40;2.40;;;;;;;2.33;65.43;102508.38;5125747;28;20085;-78
2022/04/03 01:46:36;;;;;;;4.47;2.13;;;;;;;2.32;65.65;102504.03;5129882;27;20087;-78
2022/04/03 01:49:04;;;;;;;2.33;2.13;;;;;;;2.29;65.73;102503.94;5111075;28;20015;-78
2022/04/03 01:51:30;;;;;;;3.67;2.42;;;;;;;2.28;65.59;102503.09;5128169;28;20054;-78
2022/04/03 01:53:55;;;;;;;4.60;2.28;;;;;;;2.25;65.80;102496.97;5128946;28;20066;-78
2022/04/03 01:56:20;;;;;;;5.88;2.78;;;;;;;2.23;65.63;102493.50;5114755;28;20293;-78
2022/04/03 01:58:46;;;;;;;3.55;2.45;;;;;;;2.20;65.56;102494.31;5126284;27;20036;-78
2022/04/03 02:01:11;;;;;;;2.03;1.90;;;;;;;2.19;65.89;102494.28;5117105;27;20035;-78
2022/04/03 02:03:36;;;;;;;2.40;2.20;;;;;;;2.16;65.57;102486.47;5121257;28;20120;-78
2022/04/03 02:06:02;;;;;;;2.92;1.98;;;;;;;2.13;65.67;102487.28;5156883;27;20088;-78
2022/04/03 02:08:28;;;;;;;2.40;2.20;;;;;;;2.11;65.82;102488.94;5124595;28;20047;-78
2022/04/03 02:10:54;;;;;;;3.15;2.10;;;;;;;2.08;65.85;102494.91;5095508;28;20062;-78
2022/04/03 02:13:19;;;;;;;2.33;2.13;;;;;;;2.06;65.77;102488.00;5112389;28;20032;-78
2022/04/03 02:15:45;;;;;;;2.30;2.10;;;;;;;2.04;65.96;102497.44;5107284;28;20031;-78
2022/04/03 02:18:11;;;;;;;2.40;2.20;;;;;;;2.02;65.91;102489.63;5109660;28;20064;-78
2022/04/03 02:20:36;;;;;;;2.67;2.22;;;;;;;2.00;66.08;102493.00;5095426;27;20023;-78
2022/04/03 02:23:03;;;;;;;3.38;2.00;;;;;;;1.98;66.09;102498.13;5123564;27;20116;-78
2022/04/03 02:25:30;;;;;;;2.90;2.15;;;;;;;1.96;66.14;102491.22;5110606;27;20046;-77
2022/04/03 02:27:56;;;;;;;4.05;2.38;;;;;;;1.94;65.63;102492.88;5101287;28;20108;-77
2022/04/03 02:30:21;;;;;;;2.70;1.77;;;;;;;1.91;65.95;102497.16;5135271;27;20019;-77
2022/04/03 02:32:47;;;;;;;1.92;1.80;;;;;;;1.88;66.37;102491.91;5101677;28;20035;-77
2022/04/03 02:35:13;;;;;;;2.25;1.88;;;;;;;1.87;66.26;102489.28;5077771;28;20019;-77
2022/04/03 02:37:40;;;;;;;2.67;2.15;;;;;;;1.84;66.12;102489.25;5115154;28;20050;-78
2022/04/03 02:40:09;;;;;;;2.65;2.33;;;;;;;1.81;66.44;102479.69;5104795;28;20050;-78
2022/04/03 02:42:35;;;;;;;2.30;2.13;;;;;;;1.79;66.27;102485.69;5129342;28;20046;-78
2022/04/03 02:45:00;;;;;;;4.32;2.30;;;;;;;1.76;66.51;102483.03;5110248;28;20099;-78
2022/04/03 02:47:26;;;;;;;3.03;2.20;;;;;;;1.75;66.43;102486.44;5129910;27;20046;-78
2022/04/03 02:49:51;;;;;;;2.60;2.40;;;;;;;1.71;66.53;102483.81;5136006;27;20039;-78
2022/04/03 02:52:17;;;;;;;3.30;1.95;;;;;;;1.70;66.64;102489.78;5118031;28;20039;-78
2022/04/03 02:54:44;;;;;;;2.55;1.88;;;;;;;1.69;66.72;102482.00;5113022;28;20215;-78
2022/04/03 02:57:11;;;;;;;3.58;2.25;;;;;;;1.67;66.62;102489.75;5113082;28;20062;-78
2022/04/03 02:59:36;;;;;;;1.92;1.77;;;;;;;1.67;66.92;102488.84;5130103;28;20042;-77
2022/04/03 03:02:02;;;;;;;4.15;2.28;;;;;;;1.67;66.91;102492.31;5095993;28;20035;-78
2022/04/03 03:04:27;;;;;;;2.28;2.08;;;;;;;1.66;66.91;102494.88;5133932;27;20042;-78
2022/04/03 03:06:53;;;;;;;2.63;2.13;;;;;;;1.64;67.11;102494.84;5120689;28;20057;-78
2022/04/03 03:09:18;;;;;;;3.83;2.13;;;;;;;1.64;66.84;102502.56;5092727;28;20016;-78
2022/04/03 03:11:44;;;;;;;2.40;2.20;;;;;;;1.64;66.89;102493.97;5107440;28;20103;-78
2022/04/03 03:14:09;;;;;;;2.78;1.80;;;;;;;1.63;66.93;102497.38;5141512;27;20276;-78
2022/04/03 03:16:34;;;;;;;2.20;1.90;;;;;;;1.62;66.65;102499.09;5136724;27;20049;-78
2022/04/03 03:19:00;;;;;;;2.20;2.00;;;;;;;1.61;66.57;102497.34;5114437;27;20216;-78
2022/04/03 03:21:25;;;;;;;2.95;2.15;;;;;;;1.58;66.89;102497.25;5095243;28;20023;-78
2022/04/03 03:23:50;;;;;;;2.20;1.88;;;;;;;1.55;66.55;102497.19;5113257;28;20032;-78
2022/04/03 03:26:16;;;;;;;2.30;2.10;;;;;;;1.53;66.67;102492.00;5133424;27;20026;-78
2022/04/03 03:28:41;;;;;;;4.30;2.25;;;;;;;1.50;66.43;102496.22;5113391;28;20036;-78
2022/04/03 03:31:07;;;;;;;2.58;1.90;;;;;;;1.49;66.76;102489.28;5112879;27;20047;-78
2022/04/03 03:33:33;;;;;;;2.08;1.98;;;;;;;1.45;66.97;102490.06;5112690;28;20035;-77
2022/04/03 03:35:59;;;;;;;2.47;1.98;;;;;;;1.44;67.11;102485.75;5114223;28;20042;-78
2022/04/03 03:38:24;;;;;;;2.38;2.17;;;;;;;1.42;67.04;102483.13;5112486;28;20032;-78
2022/04/03 03:40:50;;;;;;;2.70;2.30;;;;;;;1.39;67.34;102480.47;5113636;27;20032;-78
2022/04/03 03:43:16;;;;;;;1.95;1.85;;;;;;;1.37;67.29;102487.31;5117069;28;20023;-78
2022/04/03 03:45:41;;;;;;;2.55;2.13;;;;;;;1.34;67.42;102490.69;5096345;28;20099;-78
2022/04/03 03:48:08;;;;;;;2.20;2.05;;;;;;;1.33;67.50;102488.09;5106551;28;20031;-78
2022/04/03 03:50:34;;;;;;;4.30;2.28;;;;;;;1.31;67.65;102488.03;5119344;28;20044;-78
2022/04/03 03:53:00;;;;;;;2.17;1.98;;;;;;;1.30;67.69;102488.00;5111404;28;20062;-78
2022/04/03 03:55:25;;;;;;;2.35;2.10;;;;;;;1.28;67.62;102482.81;5084657;28;20043;-78
2022/04/03 03:57:51;;;;;;;2.67;2.17;;;;;;;1.27;67.72;102486.19;5085951;28;20035;-78
2022/04/03 04:00:16;;;;;;;3.17;1.92;;;;;;;1.27;67.56;102486.19;5131888;28;20077;-78
2022/04/03 04:02:42;;;;;;;3.75;2.00;;;;;;;1.28;67.53;102487.09;5076248;28;20108;-78
2022/04/03 04:05:08;;;;;;;2.25;2.10;;;;;;;1.27;67.63;102483.63;5131377;28;20035;-78
2022/04/03 04:07:41;;;;;;;2.55;2.10;;;;;;;1.26;67.64;102489.63;5116656;28;20035;-77
2022/04/03 04:10:07;;;;;;;2.88;2.20;;;;;;;1.26;67.75;102496.50;5094840;28;20024;-77
2022/04/03 04:12:34;;;;;;;5.13;2.20;;;;;;;1.24;67.80;102495.59;5118214;28;20063;-78
2022/04/03 04:14:59;;;;;;;2.50;2.17;;;;;;;1.23;67.89;102499.00;5119696;28;20030;-78
2022/04/03 04:17:24;;;;;;;2.58;2.30;;;;;;;1.21;68.03;102495.53;5101828;28;20083;-78
2022/04/03 04:19:50;;;;;;;2.45;2.25;;;;;;;1.20;68.02;102510.16;5082761;28;20031;-78
2022/04/03 04:22:16;;;;;;;2.45;2.15;;;;;;;1.19;67.94;102502.34;5095884;28;20026;-78
2022/04/03 04:24:42;;;;;;;3.00;2.25;;;;;;;1.18;68.01;102505.75;5112978;28;20039;-78
2022/04/03 04:27:08;;;;;;;2.28;2.08;;;;;;;1.17;68.12;102509.19;5125253;28;20036;-78
2022/04/03 04:29:34;;;;;;;2.50;2.30;;;;;;;1.15;68.21;102510.00;5101431;28;20053;-78
2022/04/03 04:31:59;;;;;;;5.25;2.38;;;;;;;1.15;68.22;102512.59;5084612;28;20032;-78
2022/04/03 04:34:25;;;;;;;2.38;2.15;;;;;;;1.13;68.25;102513.41;5116367;28;20032;-78
2022/04/03 04:36:50;;;;;;;4.45;2.20;;;;;;;1.12;68.19;102506.47;5086768;28;20028;-78
2022/04/03 04:39:15;;;;;;;3.78;2.22;;;;;;;1.10;68.27;102518.47;5080939;28;20042;-78
2022/04/03 04:41:41;;;;;;;2.17;2.00;;;;;;;1.08;68.13;102513.28;5086162;28;20058;-78
2022/04/03 04:44:06;;;;;;;2.38;1.98;;;;;;;1.07;68.40;102515.81;5113403;28;20020;-78
2022/04/03 04:46:32;;;;;;;3.33;2.42;;;;;;;1.05;68.35;102522.66;5094268;28;20044;-78
2022/04/03 04:48:57;;;;;;;2.83;2.60;;;;;;;1.03;68.58;102520.03;5086530;28;20038;-78
2022/04/03 04:51:23;;;;;;;2.45;2.25;;;;;;;1.02;68.51;102520.88;5113403;28;20124;-78
2022/04/03 04:53:48;;;;;;;3.65;2.47;;;;;;;1.00;68.45;102514.81;5100434;28;20069;-78
2022/04/03 04:56:14;;;;;;;2.25;2.03;;;;;;;0.98;68.46;102510.41;5062365;28;20022;-78
2022/04/03 04:58:39;;;;;;;2.80;2.20;;;;;;;0.97;68.45;102519.88;5093548;28;20024;-78
2022/04/03 05:01:05;;;;;;;4.85;2.50;;;;;;;0.97;68.54;102517.28;5118981;28;20213;-78
2022/04/03 05:03:30;;;;;;;2.78;2.38;;;;;;;0.94;68.48;102518.06;5079999;28;20054;-78
2022/04/03 05:05:57;;;;;;;2.63;2.42;;;;;;;0.92;68.56;102514.59;5110729;28;20036;-78
2022/04/03 05:08:23;;;;;;;2.63;2.42;;;;;;;0.90;68.62;102521.41;5098115;28;20332;-78
2022/04/03 05:10:50;;;;;;;2.75;2.55;;;;;;;0.89;68.36;102519.69;5092963;28;20035;-77
2022/04/03 05:13:15;;;;;;;3.08;2.80;;;;;;;0.88;68.79;102515.34;5085099;28;20039;-78
2022/04/03 05:15:41;;;;;;;3.42;2.55;;;;;;;0.86;68.53;102511.00;5122974;28;20035;-78
2022/04/03 05:18:06;;;;;;;3.25;2.28;;;;;;;0.85;68.54;102509.22;5079823;28;20027;-78
2022/04/03 05:20:33;;;;;;;2.80;2.60;;;;;;;0.85;68.57;102506.66;5114741;28;20048;-78
2022/04/03 05:22:58;;;;;;;3.28;2.80;;;;;;;0.83;68.79;102514.34;5095818;28;20103;-78
2022/04/03 05:25:24;;;;;;;3.00;2.70;;;;;;;0.82;68.67;102507.47;5098067;28;20031;-78
2022/04/03 05:27:50;;;;;;;3.53;2.90;;;;;;;0.81;68.50;102503.13;5102190;28;20040;-78
2022/04/03 05:30:15;;;;;;;2.75;2.55;;;;;;;0.81;68.54;102502.25;5099428;28;20362;-78
2022/04/03 05:32:41;;;;;;;3.22;2.95;;;;;;;0.79;68.76;102503.91;5100230;28;20035;-78
2022/04/03 05:35:08;;;;;;;3.88;3.30;;;;;;;0.77;68.65;102498.72;5124111;28;20036;-78
2022/04/03 05:37:34;;;;;;;3.50;3.20;;;;;;;0.77;68.64;102503.88;5123220;28;20024;-78
2022/04/03 05:39:59;;;;;;;4.60;3.03;;;;;;;0.75;68.62;102498.66;5098593;28;20043;-78
2022/04/03 05:42:25;;;;;;;3.35;3.05;;;;;;;0.75;68.89;102502.97;5126933;28;20055;-78
2022/04/03 05:44:50;;;;;;;2.83;2.60;;;;;;;0.73;69.17;102505.50;5131337;28;20031;-78
2022/04/03 05:47:17;;;;;;;3.03;2.83;;;;;;;0.72;69.08;102501.16;5100707;28;20036;-78
2022/04/03 05:49:43;;;;;;;2.85;2.60;;;;;;;0.71;69.18;102502.00;5131030;28;20069;-78
2022/04/03 05:52:08;;;;;;;3.10;2.75;;;;;;;0.72;69.04;102505.47;5096720;28;20048;-78
2022/04/03 05:54:34;;;;;;;3.13;2.83;;;;;;;0.73;69.09;102507.22;5087864;28;20058;-78
2022/04/03 05:56:59;;;;;;;2.70;2.50;;;;;;;0.75;69.16;102508.13;5079922;28;20024;-78
2022/04/03 05:59:25;;;;;;;3.03;2.70;;;;;;;0.74;69.29;102506.38;5079627;28;20042;-78
2022/04/03 06:01:50;;;;;;;2.67;2.47;;;;;;;0.76;69.08;102502.13;5095359;28;20020;-78
2022/04/03 06:04:16;;;;;;;2.80;2.60;;;;;;;0.77;69.28;102501.28;5121558;28;20031;-78
2022/04/03 06:06:41;;;;;;;3.17;2.88;;;;;;;0.79;69.51;102504.78;5107900;28;20028;-78
2022/04/03 06:09:08;;;;;;;2.63;2.42;;;;;;;0.81;69.37;102510.00;5112817;28;20040;-78
2022/04/03 06:11:33;;;;;;;3.63;3.33;;;;;;;0.82;69.53;102514.28;5094275;28;20392;-78
2022/04/03 06:14:00;;;;;;;3.65;2.53;;;;;;;0.81;69.59;102508.28;5089101;28;20362;-78
2022/04/03 06:16:26;;;;;;;4.78;2.92;;;;;;;0.82;69.40;102515.19;5101253;28;20112;-78
2022/04/03 06:18:53;;;;;;;3.85;2.85;;;;;;;0.83;69.49;102516.06;5106998;28;20036;-78
2022/04/03 06:21:19;;;;;;;3.15;2.95;;;;;;;0.85;69.47;102523.00;5110294;28;20032;-78
2022/04/03 06:23:44;;;;;;;4.35;3.00;;;;;;;0.86;69.60;102522.16;5114688;28;20062;-78
2022/04/03 06:26:10;;;;;;;4.55;3.35;;;;;;;0.89;69.82;102522.25;5079222;28;20067;-78
2022/04/03 06:28:35;;;;;;;3.25;2.95;;;;;;;0.92;70.03;102526.63;5080687;28;20038;-78
2022/04/03 06:31:00;;;;;;;2.80;2.60;;;;;;;0.95;70.22;102521.53;5096176;28;20035;-78
2022/04/03 06:33:26;;;;;;;2.60;2.40;;;;;;;0.99;70.22;102527.66;5092276;28;20266;-78
2022/04/03 06:35:51;;;;;;;2.80;2.60;;;;;;;1.01;70.61;102531.16;5097466;28;20079;-78
2022/04/03 06:38:17;;;;;;;3.15;2.85;;;;;;;1.04;70.86;102523.50;5094033;28;20055;-78
2022/04/03 06:40:48;;;;;;;2.53;2.33;;;;;;;1.08;70.96;102531.34;5093892;28;20135;-78
2022/04/03 06:43:16;;;;;;;3.30;3.00;;;;;;;1.10;70.90;102534.81;5103559;28;20087;-78
2022/04/03 06:45:42;;;;;;;3.17;2.90;;;;;;;1.11;71.38;102534.00;5082835;28;20240;-78
2022/04/03 06:48:07;;;;;;;3.53;3.20;;;;;;;1.15;71.49;102532.38;5081481;28;20020;-78
2022/04/03 06:50:33;;;;;;;2.92;2.72;;;;;;;1.18;71.85;102540.19;5098514;28;20253;-77
2022/04/03 06:52:59;;;;;;;4.00;3.70;;;;;;;1.21;71.87;102536.81;5109865;28;20097;-78
2022/04/03 06:55:25;;;;;;;3.30;3.10;;;;;;;1.23;72.33;102538.59;5087615;28;20039;-78
2022/04/03 06:57:50;;;;;;;12.02;3.10;;;;;;;1.27;72.63;102532.66;5123417;28;20350;-78
2022/04/03 07:00:16;;;;;;;18.65;3.20;;;;;;;1.32;72.72;102533.66;5130542;28;20032;-78
2022/04/03 07:02:42;;;;;;;5.45;3.15;;;;;;;1.39;72.99;102529.53;5129808;28;20046;-77
2022/04/03 07:05:09;;;;;;;12.05;3.50;;;;;;;1.43;73.48;102539.09;5112531;28;20027;-78
2022/04/03 07:07:35;;;;;;;20.85;3.97;;;;;;;1.47;73.71;102540.03;5107156;28;20028;-78
2022/04/03 07:10:00;;;;;;;20.02;4.00;;;;;;;1.50;74.29;102545.28;5118483;28;20042;-78
2022/04/03 07:12:25;;;;;;;20.45;4.22;;;;;;;1.52;75.46;102544.47;5130986;28;20047;-78
2022/04/03 07:14:51;;;;;;;3.78;2.90;;;;;;;1.54;75.62;102540.22;5132108;27;20062;-78
2022/04/03 07:17:17;;;;;;;3.38;2.67;;;;;;;1.60;75.85;102549.84;5134315;27;20047;-78
2022/04/03 07:19:43;;;;;;;23.95;3.60;;;;;;;1.63;77.25;102554.19;5101339;28;20042;-78
2022/04/03 07:22:08;;;;;;;12.30;4.28;;;;;;;1.65;78.08;102548.22;5097614;28;20271;-77
2022/04/03 07:24:33;;;;;;;7.47;3.75;;;;;;;1.68;78.12;102545.72;5114911;28;20043;-78
2022/04/03 07:26:59;;;;;;;5.43;3.05;;;;;;;1.72;78.11;102544.94;5086738;28;20032;-78
2022/04/03 07:29:25;;;;;;;4.95;3.00;;;;;;;1.75;78.30;102549.31;5113258;28;20046;-78
2022/04/03 07:31:51;;;;;;;11.75;3.47;;;;;;;1.80;78.41;102547.72;5130264;27;20035;-77
2022/04/03 07:34:17;;;;;;;4.53;3.13;;;;;;;1.86;78.21;102553.03;5109528;28;20198;-77
2022/04/03 07:36:42;;;;;;;9.15;3.60;;;;;;;1.88;78.78;102553.91;5128001;28;20112;-78
2022/04/03 07:39:12;;;;;;;12.15;2.67;;;;;;;1.91;78.37;102548.84;5068773;28;20328;-78
2022/04/03 07:41:38;;;;;;;7.70;2.90;;;;;;;1.92;78.76;102547.13;5101149;27;20045;-78
2022/04/03 07:44:08;;;;;;;3.72;2.80;;;;;;;1.94;78.95;102550.59;5139524;27;20063;-78
2022/04/03 07:46:35;;;;;;;11.57;2.70;;;;;;;2.00;79.02;102552.44;5131494;27;20039;-78
2022/04/03 07:49:00;;;;;;;5.88;2.70;;;;;;;2.08;79.14;102551.78;5105767;28;20088;-78
2022/04/03 07:51:27;;;;;;;3.92;2.80;;;;;;;2.18;79.25;102546.81;5098995;28;20047;-77
2022/04/03 07:53:53;;;;;;;3.83;2.65;;;;;;;2.26;79.05;102548.72;5085250;28;20243;-78
2022/04/03 07:56:19;;;;;;;11.65;2.80;;;;;;;2.36;79.16;102552.38;5093050;28;20043;-77
2022/04/03 07:58:44;;;;;;;8.00;1.95;;;;;;;2.46;78.49;102550.84;5080560;28;20289;-78
2022/04/03 08:01:10;;;;;;;2.55;1.42;;;;;;;2.53;77.81;102550.16;5089505;28;20024;-78
2022/04/03 08:03:35;;;;;;;4.32;1.38;;;;;;;2.58;76.44;102547.63;5111207;28;20045;-78
2022/04/03 08:06:00;;;;;;;1.60;1.10;;;;;;;2.61;76.46;102543.38;5100363;28;20036;-78
2022/04/03 08:08:26;;;;;;;3.53;1.58;;;;;;;2.67;76.83;102548.69;5091653;28;20083;-78
2022/04/03 08:10:51;;;;;;;1.33;1.20;;;;;;;2.75;76.24;102543.66;5104676;28;20044;-78
2022/04/03 08:13:22;;;;;;;5.50;1.40;;;;;;;2.80;76.36;102547.22;5105842;28;20039;-78
2022/04/03 08:15:48;;;;;;;4.38;1.90;;;;;;;2.83;76.22;102549.84;5089691;28;20040;-78
2022/04/03 08:18:14;;;;;;;1.67;1.00;;;;;;;2.87;76.33;102543.00;5100643;28;20350;-78
2022/04/03 08:20:39;;;;;;;1.38;1.10;;;;;;;2.93;76.36;102556.09;5068619;28;20086;-78
2022/04/03 08:23:07;;;;;;;2.75;1.10;;;;;;;2.98;75.84;102551.84;5094908;28;20023;-78
2022/04/03 08:25:34;;;;;;;1.48;0.90;;;;;;;3.04;75.45;102549.38;5103917;28;20035;-78
2022/04/03 08:28:03;;;;;;;1.15;0.80;;;;;;;3.03;74.77;102555.38;5116613;27;20027;-80
2022/04/03 08:30:29;;;;;;;;;;;;;;;3.11;74.96;102557.25;5077702;28;20020;-78
2022/04/03 08:32:55;;;;;;;6.68;1.40;;;;;;;3.18;74.85;102552.19;5083128;28;20163;-78
2022/04/03 08:35:24;;;;;;;1.98;1.15;;;;;;;3.21;74.70;102547.06;5080241;28;20035;-78
2022/04/03 08:37:50;;;;;;;1.83;1.17;;;;;;;3.25;74.47;102548.88;5116746;28;20122;-78
2022/04/03 08:40:16;;;;;;;1.90;1.20;;;;;;;3.30;74.64;102553.28;5079449;28;20028;-78
2022/04/03 08:42:42;;;;;;;1.95;1.10;;;;;;;3.35;74.68;102552.50;5104160;28;20054;-78
2022/04/03 08:45:11;;;;;;;2.50;1.30;;;;;;;3.42;74.54;102558.63;5085533;28;20049;-78
2022/04/03 08:47:45;;;;;;;1.85;1.10;;;;;;;3.49;74.20;102552.72;5085068;28;20028;-78
2022/04/03 08:50:15;;;;;;;2.63;1.60;;;;;;;3.52;74.04;102549.31;5084273;28;20227;-78
2022/04/03 08:52:45;;;;;;;2.45;1.02;;;;;;;3.56;74.29;102551.09;5095495;28;20046;-78
2022/04/03 08:55:12;;;;;;;2.08;1.23;;;;;;;3.59;74.12;102552.03;5105461;28;20039;-78
2022/04/03 08:57:37;;;;;;;1.10;1.00;;;;;;;3.64;73.65;102557.28;5112536;28;20064;-78
2022/04/03 09:00:04;;;;;;;3.60;1.17;;;;;;;3.69;73.87;102552.16;5101680;28;20042;-78
2022/04/03 09:02:30;;;;;;;2.92;1.10;;;;;;;3.76;73.86;102554.00;5086391;28;20027;-78
2022/04/03 09:04:55;;;;;;;2.50;1.50;;;;;;;3.79;73.65;102551.47;5088625;28;20040;-78
2022/04/03 09:07:21;;;;;;;2.03;1.10;;;;;;;3.83;73.01;102551.50;5085148;28;20039;-78
2022/04/03 09:09:56;;;;;;;3.03;1.23;;;;;;;3.85;73.37;102548.94;5085157;28;20024;-78
2022/04/03 09:12:21;;;;;;;1.30;1.20;;;;;;;3.83;73.57;102551.50;5100246;28;20028;-78
2022/04/03 09:14:54;;;;;;;0.82;0.82;;;;;;;3.83;73.37;102564.47;5090167;28;20087;-78
2022/04/03 09:17:37;;;;;;;1.23;0.85;;;;;;;3.85;73.55;102551.53;5096401;28;20095;-78
2022/04/03 09:20:06;;;;;;;1.85;0.80;;;;;;;3.89;73.11;102552.44;5092591;28;20060;-78
2022/04/03 09:22:35;;;;;;;4.20;1.00;;;;;;;3.90;73.03;102539.53;5090559;28;20424;-78
2022/04/03 09:25:09;;;;;;;0.65;0.50;;;;;;;3.90;73.06;102552.47;5092170;28;20089;-78
2022/04/03 09:27:44;;;;;;;2.85;1.25;;;;;;;3.93;72.24;102552.53;5095760;28;20093;-78
2022/04/03 09:30:10;;;;;;;1.20;1.10;;;;;;;3.95;72.56;102537.88;5095442;28;20094;-78
2022/04/03 09:32:46;;;;;;;2.97;0.60;;;;;;;4.02;72.59;102544.00;5075786;28;20024;-78
2022/04/03 09:35:12;;;;;;;0.90;0.50;;;;;;;4.06;70.69;102531.94;5094284;28;20311;-78
2022/04/03 09:37:37;;;;;;;0.82;0.60;;;;;;;4.12;70.69;102535.50;5076050;28;20085;-78
2022/04/03 09:40:03;;;;;;;2.45;0.80;;;;;;;4.23;69.35;102539.09;5094378;28;20251;-78
2022/04/03 09:42:29;;;;;;;1.23;0.32;;;;;;;4.27;68.44;102534.81;5074986;28;20338;-78
2022/04/03 09:44:55;;;;;;;2.15;0.63;;;;;;;4.36;67.73;102544.44;5076544;28;20066;-78
2022/04/03 09:47:30;;;;;;;0.50;0.30;;;;;;;4.38;68.58;102545.34;5075213;28;20040;-78
2022/04/03 09:50:06;;;;;;;2.13;0.40;;;;;;;4.37;70.30;102547.06;5059775;28;20069;-78
2022/04/03 09:52:37;;;;;;;1.25;0.60;;;;;;;4.35;71.40;102542.72;5097699;28;20055;-78
2022/04/03 09:55:16;;;;;;;2.08;0.40;;;;;;;4.35;71.83;102541.00;5090020;28;20110;-78
2022/04/03 09:57:42;;;;;;;;;;;;;;;4.40;71.45;102546.22;5096213;28;20059;-78
2022/04/03 10:00:09;;;;;;;3.42;0.63;;;;;;;4.45;71.64;102536.78;5080780;28;19916;-78
2022/04/03 10:02:34;;;;;;;0.30;0.30;;;;;;;4.45;71.35;102536.78;5081925;28;20169;-78
2022/04/03 10:05:00;;;;;;;2.28;0.65;;;;;;;4.43;71.58;102528.09;5098825;28;20035;-78
2022/04/03 10:07:26;;;;;;;1.38;0.63;;;;;;;4.41;71.61;102533.28;5102897;28;20095;-78
2022/04/03 10:09:53;;;;;;;9.27;0.70;;;;;;;4.41;71.58;102532.41;5086037;28;20046;-78
2022/04/03 10:12:21;;;;;;;0.95;0.47;;;;;;;4.40;71.23;102531.53;5079041;28;20048;-78
2022/04/03 10:14:49;;;;;;;1.67;0.40;;;;;;;4.40;71.27;102528.94;5101653;28;20036;-78
2022/04/03 10:17:15;;;;;;;3.95;0.45;;;;;;;4.40;71.00;102526.34;5105832;28;20027;-78
2022/04/03 10:19:41;;;;;;;3.85;0.98;;;;;;;4.43;71.22;102523.78;5105283;28;20075;-78
2022/04/03 10:22:31;;;;;;;1.00;0.50;;;;;;;4.52;71.29;102525.63;5067567;28;20236;-78
2022/04/03 10:24:59;;;;;;;0.57;0.32;;;;;;;4.57;71.31;102518.75;5099451;28;20480;-78
2022/04/03 10:27:30;;;;;;;0.40;0.40;;;;;;;4.66;71.56;102517.09;5078412;28;20032;-78
2022/04/03 10:29:58;;;;;;;1.38;0.70;;;;;;;4.72;71.37;102512.00;5099254;28;20308;-78
2022/04/03 10:32:28;;;;;;;2.17;0.38;;;;;;;4.76;70.92;102514.63;5104181;28;20031;-78
2022/04/03 10:34:58;;;;;;;1.60;0.40;;;;;;;4.81;70.86;102515.53;5101624;28;20245;-78
2022/04/03 10:37:36;;;;;;;0.40;0.40;;;;;;;4.84;70.42;102511.22;5097354;28;20038;-78
2022/04/03 10:40:06;;;;;;;2.10;0.57;;;;;;;4.87;69.91;102511.28;5107112;28;20031;-78
2022/04/03 10:42:32;;;;;;;0.95;0.40;;;;;;;4.89;69.52;102513.00;5098932;28;20652;-78
2022/04/03 10:45:13;;;;;;;1.65;0.43;;;;;;;4.91;67.90;102516.53;5080100;28;20079;-78
2022/04/03 10:47:40;;;;;;;0.40;0.30;;;;;;;4.92;67.79;102517.38;5096672;28;20130;-78
2022/04/03 10:50:06;;;;;;;1.73;0.40;;;;;;;4.94;67.80;102508.75;5101471;28;20390;-78
2022/04/03 10:52:38;;;;;;;0.95;0.30;;;;;;;4.92;66.40;102505.25;5114434;27;20259;-78
2022/04/03 10:55:20;;;;;;;0.40;0.35;;;;;;;4.96;66.62;102508.75;5109366;27;20327;-78
2022/04/03 10:57:50;;;;;;;2.30;0.35;;;;;;;4.97;67.85;102515.72;5095961;28;20081;-78
2022/04/03 11:00:16;;;;;;;1.95;0.60;;;;;;;4.98;70.31;102515.72;5092323;28;20047;-78
2022/04/03 11:02:51;;;;;;;1.73;0.45;;;;;;;5.00;70.88;102505.34;5097470;27;20111;-78
2022/04/03 11:05:22;;;;;;;4.13;0.70;;;;;;;5.09;72.20;102510.59;5101902;28;20091;-78
2022/04/03 11:08:00;;;;;;;0.75;0.50;;;;;;;5.11;71.87;102502.84;5104312;28;20035;-78
2022/04/03 11:10:56;;;;;;;0.52;0.52;;;;;;;5.20;71.55;102500.31;5111820;27;20280;-78
2022/04/03 11:13:31;;;;;;;3.92;0.50;;;;;;;5.26;71.38;102499.50;5096891;27;20023;-78
2022/04/03 11:16:00;;;;;;;0.40;0.40;;;;;;;5.31;71.68;102495.19;5118960;27;20035;-78
2022/04/03 11:18:29;;;;;;;0.50;0.50;;;;;;;5.39;71.86;102501.34;5106325;27;20072;-78
2022/04/03 11:21:17;;;;;;;1.92;0.73;;;;;;;5.44;71.64;102502.25;5112801;28;20042;-78
2022/04/03 11:23:51;;;;;;;0.57;0.40;;;;;;;5.45;71.55;102496.19;5115164;28;20066;-78
2022/04/03 11:26:17;;;;;;;0.35;0.32;;;;;;;5.46;71.02;102504.88;5097927;28;20028;-78
2022/04/03 11:28:44;;;;;;;1.13;0.95;;;;;;;5.46;71.26;102495.34;5096237;28;20051;-78
2022/04/03 11:31:10;;;;;;;2.40;0.70;;;;;;;5.55;71.37;102499.72;5097825;28;20331;-78
2022/04/03 11:33:36;;;;;;;0.55;0.50;;;;;;;5.62;69.69;102487.63;5113640;27;20326;-78
2022/04/03 11:36:13;;;;;;;0.30;0.30;;;;;;;5.64;68.59;102494.59;5111000;28;20051;-78